sensor_id;sensor_type;location;lat;lon;timestamp;P1;durP1;ratioP1;P2;durP2;ratioP2
66946;SDS011;53853;51.982;5.928;2023-05-21T00:00:04;4.20;;;3.35;;
66946;SDS011;53853;51.982;5.928;2023-05-21T00:02:38;5.53;;;3.78;;
66946;SDS011;53853;51.982;5.928;2023-05-21T00:05:10;8.55;;;3.15;;
66946;SDS011;53853;51.982;5.928;2023-05-21T00:07:41;7.07;;;3.55;;
66946;SDS011;53853;51.982;5.928;2023-05-21T00:10:11;4.78;;;2.70;;
66946;SDS011;53853;51.982;5.928;2023-05-21T00:12:41;6.43;;;2.72;;
66946;SDS011;53853;51.982;5.928;2023-05-21T00:15:11;9.65;;;7.85;;
66946;SDS011;53853;51.982;5.928;2023-05-21T00:17:41;9.52;;;6.63;;
66946;SDS011;53853;51.982;5.928;2023-05-21T00:20:13;5.05;;;3.33;;
66946;SDS011;53853;51.982;5.928;2023-05-21T00:22:43;5.63;;;3.42;;
66946;SDS011;53853;51.982;5.928;2023-05-21T00:25:13;5.78;;;3.42;;
66946;SDS011;53853;51.982;5.928;2023-05-21T00:27:43;4.53;;;3.75;;
66946;SDS011;53853;51.982;5.928;2023-05-21T00:30:13;3.78;;;2.78;;
66946;SDS011;53853;51.982;5.928;2023-05-21T00:32:43;4.38;;;2.60;;
66946;SDS011;53853;51.982;5.928;2023-05-21T00:35:16;5.05;;;2.95;;
66946;SDS011;53853;51.982;5.928;2023-05-21T00:37:46;5.15;;;3.20;;
66946;SDS011;53853;51.982;5.928;2023-05-21T00:40:16;3.85;;;2.67;;
66946;SDS011;53853;51.982;5.928;2023-05-21T00:42:47;6.32;;;3.92;;
66946;SDS011;53853;51.982;5.928;2023-05-21T00:45:17;4.43;;;3.63;;
66946;SDS011;53853;51.982;5.928;2023-05-21T00:47:48;4.57;;;3.28;;
66946;SDS011;53853;51.982;5.928;2023-05-21T00:50:22;5.03;;;3.67;;
66946;SDS011;53853;51.982;5.928;2023-05-21T00:52:52;4.07;;;2.85;;
66946;SDS011;53853;51.982;5.928;2023-05-21T00:55:22;6.00;;;3.67;;
66946;SDS011;53853;51.982;5.928;2023-05-21T00:57:53;6.65;;;3.53;;
66946;SDS011;53853;51.982;5.928;2023-05-21T01:00:23;5.55;;;2.97;;
66946;SDS011;53853;51.982;5.928;2023-05-21T01:02:53;7.63;;;3.80;;
66946;SDS011;53853;51.982;5.928;2023-05-21T01:05:25;4.95;;;3.63;;
66946;SDS011;53853;51.982;5.928;2023-05-21T01:07:55;5.55;;;3.50;;
66946;SDS011;53853;51.982;5.928;2023-05-21T01:10:26;5.68;;;3.10;;
66946;SDS011;53853;51.982;5.928;2023-05-21T01:12:57;5.53;;;4.20;;
66946;SDS011;53853;51.982;5.928;2023-05-21T01:15:27;5.13;;;3.08;;
66946;SDS011;53853;51.982;5.928;2023-05-21T01:17:57;4.95;;;4.00;;
66946;SDS011;53853;51.982;5.928;2023-05-21T01:20:29;5.50;;;3.95;;
66946;SDS011;53853;51.982;5.928;2023-05-21T01:23:02;5.80;;;4.03;;
66946;SDS011;53853;51.982;5.928;2023-05-21T01:25:33;4.83;;;3.37;;
66946;SDS011;53853;51.982;5.928;2023-05-21T01:28:03;6.43;;;3.72;;
66946;SDS011;53853;51.982;5.928;2023-05-21T01:30:33;7.95;;;4.20;;
66946;SDS011;53853;51.982;5.928;2023-05-21T01:33:04;5.45;;;3.47;;
66946;SDS011;53853;51.982;5.928;2023-05-21T01:35:40;4.97;;;3.50;;
66946;SDS011;53853;51.982;5.928;2023-05-21T01:38:19;4.55;;;3.55;;
66946;SDS011;53853;51.982;5.928;2023-05-21T01:40:54;5.28;;;3.70;;
66946;SDS011;53853;51.982;5.928;2023-05-21T01:43:30;5.60;;;4.20;;
66946;SDS011;53853;51.982;5.928;2023-05-21T01:46:02;4.97;;;3.37;;
66946;SDS011;53853;51.982;5.928;2023-05-21T01:48:33;4.95;;;3.63;;
66946;SDS011;53853;51.982;5.928;2023-05-21T01:51:04;6.72;;;3.30;;
66946;SDS011;53853;51.982;5.928;2023-05-21T01:53:36;3.88;;;2.83;;
66946;SDS011;53853;51.982;5.928;2023-05-21T01:56:07;6.38;;;4.20;;
66946;SDS011;53853;51.982;5.928;2023-05-21T01:58:37;4.70;;;3.88;;
66946;SDS011;53853;51.982;5.928;2023-05-21T02:01:08;4.82;;;3.75;;
66946;SDS011;53853;51.982;5.928;2023-05-21T02:03:38;5.00;;;3.83;;
66946;SDS011;53853;51.982;5.928;2023-05-21T02:06:08;5.28;;;3.55;;
66946;SDS011;53853;51.982;5.928;2023-05-21T02:08:40;5.38;;;4.63;;
66946;SDS011;53853;51.982;5.928;2023-05-21T02:11:11;6.05;;;3.33;;
66946;SDS011;53853;51.982;5.928;2023-05-21T02:13:42;7.05;;;3.78;;
66946;SDS011;53853;51.982;5.928;2023-05-21T02:16:11;7.07;;;3.85;;
66946;SDS011;53853;51.982;5.928;2023-05-21T02:18:42;5.78;;;4.03;;
66946;SDS011;53853;51.982;5.928;2023-05-21T02:21:12;6.30;;;3.95;;
66946;SDS011;53853;51.982;5.928;2023-05-21T02:23:45;5.40;;;4.07;;
66946;SDS011;53853;51.982;5.928;2023-05-21T02:26:15;6.38;;;4.35;;
66946;SDS011;53853;51.982;5.928;2023-05-21T02:28:46;5.90;;;4.50;;
66946;SDS011;53853;51.982;5.928;2023-05-21T02:31:17;6.00;;;3.78;;
66946;SDS011;53853;51.982;5.928;2023-05-21T02:33:47;5.68;;;3.42;;
66946;SDS011;53853;51.982;5.928;2023-05-21T02:36:17;6.05;;;4.10;;
66946;SDS011;53853;51.982;5.928;2023-05-21T02:38:49;5.68;;;4.18;;
66946;SDS011;53853;51.982;5.928;2023-05-21T02:41:19;5.43;;;4.43;;
66946;SDS011;53853;51.982;5.928;2023-05-21T02:43:49;5.38;;;4.03;;
66946;SDS011;53853;51.982;5.928;2023-05-21T02:46:19;5.63;;;4.60;;
66946;SDS011;53853;51.982;5.928;2023-05-21T02:48:51;4.88;;;4.25;;
66946;SDS011;53853;51.982;5.928;2023-05-21T02:51:21;6.28;;;4.43;;
66946;SDS011;53853;51.982;5.928;2023-05-21T02:53:53;5.10;;;4.40;;
66946;SDS011;53853;51.982;5.928;2023-05-21T02:56:23;6.57;;;4.05;;
66946;SDS011;53853;51.982;5.928;2023-05-21T02:58:53;4.75;;;3.88;;
66946;SDS011;53853;51.982;5.928;2023-05-21T03:01:23;4.88;;;3.80;;
66946;SDS011;53853;51.982;5.928;2023-05-21T03:03:53;4.35;;;3.90;;
66946;SDS011;53853;51.982;5.928;2023-05-21T03:06:23;5.68;;;4.72;;
66946;SDS011;53853;51.982;5.928;2023-05-21T03:08:55;6.10;;;4.80;;
66946;SDS011;53853;51.982;5.928;2023-05-21T03:11:25;5.47;;;4.18;;
66946;SDS011;53853;51.982;5.928;2023-05-21T03:13:55;6.57;;;5.30;;
66946;SDS011;53853;51.982;5.928;2023-05-21T03:16:24;7.60;;;5.22;;
66946;SDS011;53853;51.982;5.928;2023-05-21T03:18:59;6.20;;;4.38;;
66946;SDS011;53853;51.982;5.928;2023-05-21T03:21:29;7.50;;;4.10;;
66946;SDS011;53853;51.982;5.928;2023-05-21T03:24:02;5.40;;;4.60;;
66946;SDS011;53853;51.982;5.928;2023-05-21T03:26:32;5.63;;;4.18;;
66946;SDS011;53853;51.982;5.928;2023-05-21T03:29:02;4.85;;;4.18;;
66946;SDS011;53853;51.982;5.928;2023-05-21T03:31:34;5.72;;;4.60;;
66946;SDS011;53853;51.982;5.928;2023-05-21T03:34:09;7.10;;;4.25;;
66946;SDS011;53853;51.982;5.928;2023-05-21T03:36:39;7.55;;;4.57;;
66946;SDS011;53853;51.982;5.928;2023-05-21T03:39:12;6.95;;;4.47;;
66946;SDS011;53853;51.982;5.928;2023-05-21T03:41:42;4.63;;;3.70;;
66946;SDS011;53853;51.982;5.928;2023-05-21T03:44:20;5.85;;;4.78;;
66946;SDS011;53853;51.982;5.928;2023-05-21T03:47:01;5.20;;;3.83;;
66946;SDS011;53853;51.982;5.928;2023-05-21T03:49:33;5.47;;;3.92;;
66946;SDS011;53853;51.982;5.928;2023-05-21T03:52:03;5.35;;;4.05;;
66946;SDS011;53853;51.982;5.928;2023-05-21T03:54:36;5.00;;;4.20;;
66946;SDS011;53853;51.982;5.928;2023-05-21T03:57:08;6.53;;;4.18;;
66946;SDS011;53853;51.982;5.928;2023-05-21T03:59:38;6.32;;;5.00;;
66946;SDS011;53853;51.982;5.928;2023-05-21T04:02:07;7.85;;;5.20;;
66946;SDS011;53853;51.982;5.928;2023-05-21T04:04:37;4.32;;;3.65;;
66946;SDS011;53853;51.982;5.928;2023-05-21T04:07:08;8.00;;;4.85;;
66946;SDS011;53853;51.982;5.928;2023-05-21T04:09:42;7.85;;;5.40;;
66946;SDS011;53853;51.982;5.928;2023-05-21T04:12:12;8.18;;;4.85;;
66946;SDS011;53853;51.982;5.928;2023-05-21T04:14:42;6.00;;;5.00;;
66946;SDS011;53853;51.982;5.928;2023-05-21T04:17:12;7.18;;;4.57;;
66946;SDS011;53853;51.982;5.928;2023-05-21T04:19:43;6.70;;;5.82;;
66946;SDS011;53853;51.982;5.928;2023-05-21T04:22:13;5.28;;;4.55;;
66946;SDS011;53853;51.982;5.928;2023-05-21T04:24:46;7.13;;;4.97;;
66946;SDS011;53853;51.982;5.928;2023-05-21T04:27:20;6.70;;;4.47;;
66946;SDS011;53853;51.982;5.928;2023-05-21T04:29:51;8.77;;;5.60;;
66946;SDS011;53853;51.982;5.928;2023-05-21T04:32:23;5.70;;;4.18;;
66946;SDS011;53853;51.982;5.928;2023-05-21T04:34:53;5.82;;;4.43;;
66946;SDS011;53853;51.982;5.928;2023-05-21T04:37:23;4.72;;;3.92;;
66946;SDS011;53853;51.982;5.928;2023-05-21T04:39:55;6.75;;;5.35;;
66946;SDS011;53853;51.982;5.928;2023-05-21T04:42:26;7.15;;;5.82;;
66946;SDS011;53853;51.982;5.928;2023-05-21T04:44:58;8.38;;;4.63;;
66946;SDS011;53853;51.982;5.928;2023-05-21T04:47:29;5.63;;;4.75;;
66946;SDS011;53853;51.982;5.928;2023-05-21T04:50:00;7.00;;;5.40;;
66946;SDS011;53853;51.982;5.928;2023-05-21T04:52:30;6.57;;;4.50;;
66946;SDS011;53853;51.982;5.928;2023-05-21T04:55:02;7.53;;;4.25;;
66946;SDS011;53853;51.982;5.928;2023-05-21T04:57:33;9.40;;;5.47;;
66946;SDS011;53853;51.982;5.928;2023-05-21T05:00:03;5.63;;;4.75;;
66946;SDS011;53853;51.982;5.928;2023-05-21T05:02:40;4.72;;;3.67;;
66946;SDS011;53853;51.982;5.928;2023-05-21T05:05:09;6.88;;;4.90;;
66946;SDS011;53853;51.982;5.928;2023-05-21T05:07:39;6.60;;;4.63;;
66946;SDS011;53853;51.982;5.928;2023-05-21T05:10:12;6.38;;;4.95;;
66946;SDS011;53853;51.982;5.928;2023-05-21T05:12:43;4.88;;;4.38;;
66946;SDS011;53853;51.982;5.928;2023-05-21T05:15:12;10.77;;;5.88;;
66946;SDS011;53853;51.982;5.928;2023-05-21T05:17:42;8.75;;;6.05;;
66946;SDS011;53853;51.982;5.928;2023-05-21T05:20:13;7.05;;;4.57;;
66946;SDS011;53853;51.982;5.928;2023-05-21T05:22:43;6.53;;;5.30;;
66946;SDS011;53853;51.982;5.928;2023-05-21T05:25:15;7.63;;;4.85;;
66946;SDS011;53853;51.982;5.928;2023-05-21T05:27:46;5.63;;;4.78;;
66946;SDS011;53853;51.982;5.928;2023-05-21T05:30:15;5.32;;;4.30;;
66946;SDS011;53853;51.982;5.928;2023-05-21T05:32:45;6.47;;;4.97;;
66946;SDS011;53853;51.982;5.928;2023-05-21T05:35:15;7.18;;;5.70;;
66946;SDS011;53853;51.982;5.928;2023-05-21T05:37:45;6.57;;;4.57;;
66946;SDS011;53853;51.982;5.928;2023-05-21T05:40:18;6.80;;;5.05;;
66946;SDS011;53853;51.982;5.928;2023-05-21T05:42:47;7.90;;;5.38;;
66946;SDS011;53853;51.982;5.928;2023-05-21T05:45:18;8.77;;;6.43;;
66946;SDS011;53853;51.982;5.928;2023-05-21T05:47:48;6.60;;;5.03;;
66946;SDS011;53853;51.982;5.928;2023-05-21T05:50:18;5.78;;;5.15;;
66946;SDS011;53853;51.982;5.928;2023-05-21T05:52:47;5.75;;;4.80;;
66946;SDS011;53853;51.982;5.928;2023-05-21T05:55:20;7.57;;;5.60;;
66946;SDS011;53853;51.982;5.928;2023-05-21T05:57:51;5.03;;;3.95;;
66946;SDS011;53853;51.982;5.928;2023-05-21T06:00:21;9.82;;;6.82;;
66946;SDS011;53853;51.982;5.928;2023-05-21T06:02:51;10.05;;;5.85;;
66946;SDS011;53853;51.982;5.928;2023-05-21T06:05:21;9.00;;;6.03;;
66946;SDS011;53853;51.982;5.928;2023-05-21T06:07:51;7.32;;;5.53;;
66946;SDS011;53853;51.982;5.928;2023-05-21T06:10:24;9.07;;;5.60;;
66946;SDS011;53853;51.982;5.928;2023-05-21T06:12:53;7.70;;;5.90;;
66946;SDS011;53853;51.982;5.928;2023-05-21T06:15:23;7.22;;;5.68;;
66946;SDS011;53853;51.982;5.928;2023-05-21T06:17:53;6.35;;;5.00;;
66946;SDS011;53853;51.982;5.928;2023-05-21T06:20:23;4.88;;;3.95;;
66946;SDS011;53853;51.982;5.928;2023-05-21T06:22:54;5.93;;;4.70;;
66946;SDS011;53853;51.982;5.928;2023-05-21T06:25:27;5.60;;;5.10;;
66946;SDS011;53853;51.982;5.928;2023-05-21T06:27:57;6.80;;;4.97;;
66946;SDS011;53853;51.982;5.928;2023-05-21T06:30:29;5.82;;;4.68;;
66946;SDS011;53853;51.982;5.928;2023-05-21T06:32:59;6.45;;;5.25;;
66946;SDS011;53853;51.982;5.928;2023-05-21T06:35:29;8.02;;;5.15;;
66946;SDS011;53853;51.982;5.928;2023-05-21T06:38:02;7.35;;;5.28;;
66946;SDS011;53853;51.982;5.928;2023-05-21T06:40:34;7.05;;;5.10;;
66946;SDS011;53853;51.982;5.928;2023-05-21T06:43:04;6.93;;;6.23;;
66946;SDS011;53853;51.982;5.928;2023-05-21T06:46:10;7.80;;;6.10;;
66946;SDS011;53853;51.982;5.928;2023-05-21T06:48:39;7.38;;;5.00;;
66946;SDS011;53853;51.982;5.928;2023-05-21T06:51:10;6.05;;;5.05;;
66946;SDS011;53853;51.982;5.928;2023-05-21T06:53:40;9.05;;;6.45;;
66946;SDS011;53853;51.982;5.928;2023-05-21T06:56:12;6.75;;;5.05;;
66946;SDS011;53853;51.982;5.928;2023-05-21T06:58:43;8.43;;;5.65;;
66946;SDS011;53853;51.982;5.928;2023-05-21T07:01:15;6.55;;;4.45;;
66946;SDS011;53853;51.982;5.928;2023-05-21T07:03:44;8.77;;;5.85;;
66946;SDS011;53853;51.982;5.928;2023-05-21T07:06:14;8.40;;;6.28;;
66946;SDS011;53853;51.982;5.928;2023-05-21T07:08:45;7.07;;;4.80;;
66946;SDS011;53853;51.982;5.928;2023-05-21T07:11:18;5.38;;;4.55;;
66946;SDS011;53853;51.982;5.928;2023-05-21T07:13:50;7.22;;;5.75;;
66946;SDS011;53853;51.982;5.928;2023-05-21T07:16:20;6.68;;;5.38;;
66946;SDS011;53853;51.982;5.928;2023-05-21T07:18:49;8.02;;;5.90;;
66946;SDS011;53853;51.982;5.928;2023-05-21T07:21:19;7.13;;;5.18;;
66946;SDS011;53853;51.982;5.928;2023-05-21T07:23:51;7.70;;;5.80;;
66946;SDS011;53853;51.982;5.928;2023-05-21T07:26:24;7.60;;;6.22;;
66946;SDS011;53853;51.982;5.928;2023-05-21T07:28:53;7.93;;;5.97;;
66946;SDS011;53853;51.982;5.928;2023-05-21T07:31:23;13.38;;;6.18;;
66946;SDS011;53853;51.982;5.928;2023-05-21T07:33:54;7.45;;;5.63;;
66946;SDS011;53853;51.982;5.928;2023-05-21T07:36:28;5.53;;;4.82;;
66946;SDS011;53853;51.982;5.928;2023-05-21T07:38:59;7.05;;;5.45;;
66946;SDS011;53853;51.982;5.928;2023-05-21T07:41:32;9.57;;;5.90;;
66946;SDS011;53853;51.982;5.928;2023-05-21T07:44:06;6.75;;;5.88;;
66946;SDS011;53853;51.982;5.928;2023-05-21T07:49:10;8.00;;;5.93;;
66946;SDS011;53853;51.982;5.928;2023-05-21T07:51:42;7.57;;;6.47;;
66946;SDS011;53853;51.982;5.928;2023-05-21T07:54:14;9.52;;;5.90;;
66946;SDS011;53853;51.982;5.928;2023-05-21T07:56:47;11.75;;;7.03;;
66946;SDS011;53853;51.982;5.928;2023-05-21T07:59:38;10.10;;;8.27;;
66946;SDS011;53853;51.982;5.928;2023-05-21T08:02:08;10.73;;;7.72;;
66946;SDS011;53853;51.982;5.928;2023-05-21T08:04:38;7.50;;;6.70;;
66946;SDS011;53853;51.982;5.928;2023-05-21T08:07:09;8.90;;;6.45;;
66946;SDS011;53853;51.982;5.928;2023-05-21T08:09:41;8.10;;;6.22;;
66946;SDS011;53853;51.982;5.928;2023-05-21T08:12:14;10.73;;;7.00;;
66946;SDS011;53853;51.982;5.928;2023-05-21T08:14:44;8.48;;;6.63;;
66946;SDS011;53853;51.982;5.928;2023-05-21T08:17:15;10.05;;;6.47;;
66946;SDS011;53853;51.982;5.928;2023-05-21T08:19:45;10.85;;;6.97;;
66946;SDS011;53853;51.982;5.928;2023-05-21T08:22:15;10.95;;;7.22;;
66946;SDS011;53853;51.982;5.928;2023-05-21T08:24:45;8.30;;;6.18;;
66946;SDS011;53853;51.982;5.928;2023-05-21T08:27:18;7.45;;;6.32;;
66946;SDS011;53853;51.982;5.928;2023-05-21T08:29:47;10.13;;;7.60;;
66946;SDS011;53853;51.982;5.928;2023-05-21T08:32:17;9.40;;;6.97;;
66946;SDS011;53853;51.982;5.928;2023-05-21T08:34:47;7.93;;;7.05;;
66946;SDS011;53853;51.982;5.928;2023-05-21T08:37:38;7.90;;;6.07;;
66946;SDS011;53853;51.982;5.928;2023-05-21T08:40:37;10.55;;;7.32;;
66946;SDS011;53853;51.982;5.928;2023-05-21T08:43:10;8.63;;;6.80;;
66946;SDS011;53853;51.982;5.928;2023-05-21T08:45:44;8.48;;;7.30;;
66946;SDS011;53853;51.982;5.928;2023-05-21T08:48:21;10.27;;;7.85;;
66946;SDS011;53853;51.982;5.928;2023-05-21T08:50:52;7.13;;;6.43;;
66946;SDS011;53853;51.982;5.928;2023-05-21T08:53:31;7.93;;;6.60;;
66946;SDS011;53853;51.982;5.928;2023-05-21T08:56:04;11.20;;;8.07;;
66946;SDS011;53853;51.982;5.928;2023-05-21T08:58:48;10.88;;;7.53;;
66946;SDS011;53853;51.982;5.928;2023-05-21T09:01:21;7.97;;;7.18;;
66946;SDS011;53853;51.982;5.928;2023-05-21T09:03:57;9.82;;;8.75;;
66946;SDS011;53853;51.982;5.928;2023-05-21T09:06:28;8.32;;;7.40;;
66946;SDS011;53853;51.982;5.928;2023-05-21T09:09:01;10.18;;;8.63;;
66946;SDS011;53853;51.982;5.928;2023-05-21T09:11:42;10.33;;;8.50;;
66946;SDS011;53853;51.982;5.928;2023-05-21T09:14:16;10.48;;;9.48;;
66946;SDS011;53853;51.982;5.928;2023-05-21T09:16:57;9.65;;;7.82;;
66946;SDS011;53853;51.982;5.928;2023-05-21T09:19:28;7.65;;;6.85;;
66946;SDS011;53853;51.982;5.928;2023-05-21T09:22:00;12.10;;;8.70;;
66946;SDS011;53853;51.982;5.928;2023-05-21T09:27:02;9.80;;;8.02;;
66946;SDS011;53853;51.982;5.928;2023-05-21T09:29:37;13.23;;;8.90;;
66946;SDS011;53853;51.982;5.928;2023-05-21T09:32:10;11.77;;;9.13;;
66946;SDS011;53853;51.982;5.928;2023-05-21T09:34:40;11.52;;;9.02;;
66946;SDS011;53853;51.982;5.928;2023-05-21T09:37:10;10.98;;;8.60;;
66946;SDS011;53853;51.982;5.928;2023-05-21T09:39:41;9.85;;;7.13;;
66946;SDS011;53853;51.982;5.928;2023-05-21T09:42:14;10.07;;;7.55;;
66946;SDS011;53853;51.982;5.928;2023-05-21T09:44:50;10.88;;;9.13;;
66946;SDS011;53853;51.982;5.928;2023-05-21T09:47:21;7.28;;;6.50;;
66946;SDS011;53853;51.982;5.928;2023-05-21T09:49:51;9.23;;;8.02;;
66946;SDS011;53853;51.982;5.928;2023-05-21T09:52:25;10.63;;;9.45;;
66946;SDS011;53853;51.982;5.928;2023-05-21T09:54:55;10.15;;;9.15;;
66946;SDS011;53853;51.982;5.928;2023-05-21T09:57:25;10.38;;;8.73;;
66946;SDS011;53853;51.982;5.928;2023-05-21T09:59:57;9.35;;;7.97;;
66946;SDS011;53853;51.982;5.928;2023-05-21T10:02:27;9.85;;;8.85;;
66946;SDS011;53853;51.982;5.928;2023-05-21T10:04:59;10.25;;;8.27;;
66946;SDS011;53853;51.982;5.928;2023-05-21T10:07:30;10.93;;;9.82;;
66946;SDS011;53853;51.982;5.928;2023-05-21T10:10:00;13.52;;;11.90;;
66946;SDS011;53853;51.982;5.928;2023-05-21T10:12:34;11.95;;;10.38;;
66946;SDS011;53853;51.982;5.928;2023-05-21T10:15:08;11.50;;;9.82;;
66946;SDS011;53853;51.982;5.928;2023-05-21T10:17:42;12.27;;;9.70;;
66946;SDS011;53853;51.982;5.928;2023-05-21T10:20:13;18.33;;;12.68;;
66946;SDS011;53853;51.982;5.928;2023-05-21T10:22:44;13.82;;;12.07;;
66946;SDS011;53853;51.982;5.928;2023-05-21T10:25:14;12.20;;;10.55;;
66946;SDS011;53853;51.982;5.928;2023-05-21T10:27:44;10.77;;;8.50;;
66946;SDS011;53853;51.982;5.928;2023-05-21T10:30:18;10.85;;;8.55;;
66946;SDS011;53853;51.982;5.928;2023-05-21T10:32:50;11.93;;;10.73;;
66946;SDS011;53853;51.982;5.928;2023-05-21T10:35:23;13.32;;;11.25;;
66946;SDS011;53853;51.982;5.928;2023-05-21T10:37:53;12.38;;;11.07;;
66946;SDS011;53853;51.982;5.928;2023-05-21T10:40:24;9.23;;;8.27;;
66946;SDS011;53853;51.982;5.928;2023-05-21T10:46:06;11.90;;;10.55;;
66946;SDS011;53853;51.982;5.928;2023-05-21T10:48:51;13.00;;;10.23;;
66946;SDS011;53853;51.982;5.928;2023-05-21T10:51:33;11.13;;;8.77;;
66946;SDS011;53853;51.982;5.928;2023-05-21T10:54:17;12.23;;;10.70;;
66946;SDS011;53853;51.982;5.928;2023-05-21T10:57:07;14.07;;;12.60;;
66946;SDS011;53853;51.982;5.928;2023-05-21T10:59:44;11.38;;;9.48;;
66946;SDS011;53853;51.982;5.928;2023-05-21T11:02:18;10.68;;;9.65;;
66946;SDS011;53853;51.982;5.928;2023-05-21T11:04:48;12.40;;;11.20;;
66946;SDS011;53853;51.982;5.928;2023-05-21T11:10:30;11.65;;;9.63;;
66946;SDS011;53853;51.982;5.928;2023-05-21T11:13:11;10.27;;;9.18;;
66946;SDS011;53853;51.982;5.928;2023-05-21T11:21:31;12.82;;;11.05;;
66946;SDS011;53853;51.982;5.928;2023-05-21T11:24:03;9.95;;;7.80;;
66946;SDS011;53853;51.982;5.928;2023-05-21T11:29:37;13.77;;;11.82;;
66946;SDS011;53853;51.982;5.928;2023-05-21T11:32:11;13.18;;;10.90;;
66946;SDS011;53853;51.982;5.928;2023-05-21T11:34:47;11.55;;;9.93;;
66946;SDS011;53853;51.982;5.928;2023-05-21T11:37:21;14.77;;;11.23;;
66946;SDS011;53853;51.982;5.928;2023-05-21T11:39:55;11.60;;;9.13;;
66946;SDS011;53853;51.982;5.928;2023-05-21T11:42:26;13.43;;;12.05;;
66946;SDS011;53853;51.982;5.928;2023-05-21T11:44:58;11.63;;;10.43;;
66946;SDS011;53853;51.982;5.928;2023-05-21T11:47:29;11.88;;;10.73;;
66946;SDS011;53853;51.982;5.928;2023-05-21T11:50:03;12.88;;;11.43;;
66946;SDS011;53853;51.982;5.928;2023-05-21T11:55:03;10.52;;;9.52;;
66946;SDS011;53853;51.982;5.928;2023-05-21T11:57:34;12.48;;;10.82;;
66946;SDS011;53853;51.982;5.928;2023-05-21T12:00:04;12.63;;;10.88;;
66946;SDS011;53853;51.982;5.928;2023-05-21T12:02:43;15.93;;;10.90;;
66946;SDS011;53853;51.982;5.928;2023-05-21T12:05:16;14.70;;;10.75;;
66946;SDS011;53853;51.982;5.928;2023-05-21T12:07:47;11.85;;;10.57;;
66946;SDS011;53853;51.982;5.928;2023-05-21T12:10:19;9.23;;;8.20;;
66946;SDS011;53853;51.982;5.928;2023-05-21T12:12:50;12.40;;;10.25;;
66946;SDS011;53853;51.982;5.928;2023-05-21T12:15:20;12.85;;;9.45;;
66946;SDS011;53853;51.982;5.928;2023-05-21T12:17:50;12.90;;;10.45;;
66946;SDS011;53853;51.982;5.928;2023-05-21T12:20:23;14.77;;;11.60;;
66946;SDS011;53853;51.982;5.928;2023-05-21T12:22:58;12.45;;;11.23;;
66946;SDS011;53853;51.982;5.928;2023-05-21T12:25:28;11.23;;;9.97;;
66946;SDS011;53853;51.982;5.928;2023-05-21T12:27:59;11.80;;;10.60;;
66946;SDS011;53853;51.982;5.928;2023-05-21T12:30:30;12.13;;;10.88;;
66946;SDS011;53853;51.982;5.928;2023-05-21T12:33:00;16.35;;;13.02;;
66946;SDS011;53853;51.982;5.928;2023-05-21T12:35:32;10.82;;;9.77;;
66946;SDS011;53853;51.982;5.928;2023-05-21T12:38:02;11.02;;;9.88;;
66946;SDS011;53853;51.982;5.928;2023-05-21T12:40:34;12.35;;;10.98;;
66946;SDS011;53853;51.982;5.928;2023-05-21T12:43:05;11.98;;;10.77;;
66946;SDS011;53853;51.982;5.928;2023-05-21T12:45:35;11.35;;;9.50;;
66946;SDS011;53853;51.982;5.928;2023-05-21T12:48:06;11.18;;;9.15;;
66946;SDS011;53853;51.982;5.928;2023-05-21T12:50:42;13.93;;;8.75;;
66946;SDS011;53853;51.982;5.928;2023-05-21T12:53:12;12.40;;;10.57;;
66946;SDS011;53853;51.982;5.928;2023-05-21T12:55:42;10.70;;;9.60;;
66946;SDS011;53853;51.982;5.928;2023-05-21T12:58:12;12.30;;;10.00;;
66946;SDS011;53853;51.982;5.928;2023-05-21T13:00:42;12.52;;;11.23;;
66946;SDS011;53853;51.982;5.928;2023-05-21T13:03:12;11.00;;;9.60;;
66946;SDS011;53853;51.982;5.928;2023-05-21T13:05:44;11.00;;;9.65;;
66946;SDS011;53853;51.982;5.928;2023-05-21T13:08:14;11.48;;;9.40;;
66946;SDS011;53853;51.982;5.928;2023-05-21T13:10:44;15.50;;;12.45;;
66946;SDS011;53853;51.982;5.928;2023-05-21T13:13:14;12.13;;;10.93;;
66946;SDS011;53853;51.982;5.928;2023-05-21T13:15:44;10.60;;;9.57;;
66946;SDS011;53853;51.982;5.928;2023-05-21T13:18:14;10.18;;;8.57;;
66946;SDS011;53853;51.982;5.928;2023-05-21T13:20:48;9.18;;;8.15;;
66946;SDS011;53853;51.982;5.928;2023-05-21T13:23:17;11.55;;;10.23;;
66946;SDS011;53853;51.982;5.928;2023-05-21T13:25:47;13.52;;;10.77;;
66946;SDS011;53853;51.982;5.928;2023-05-21T13:28:17;13.05;;;10.95;;
66946;SDS011;53853;51.982;5.928;2023-05-21T13:30:48;13.55;;;11.80;;
66946;SDS011;53853;51.982;5.928;2023-05-21T13:33:19;11.85;;;10.38;;
66946;SDS011;53853;51.982;5.928;2023-05-21T13:35:52;12.30;;;11.10;;
66946;SDS011;53853;51.982;5.928;2023-05-21T13:38:21;10.70;;;9.15;;
66946;SDS011;53853;51.982;5.928;2023-05-21T13:40:51;13.27;;;11.45;;
66946;SDS011;53853;51.982;5.928;2023-05-21T13:43:21;11.27;;;9.80;;
66946;SDS011;53853;51.982;5.928;2023-05-21T13:45:51;14.52;;;13.02;;
66946;SDS011;53853;51.982;5.928;2023-05-21T13:48:21;11.25;;;9.45;;
66946;SDS011;53853;51.982;5.928;2023-05-21T13:50:54;14.05;;;10.85;;
66946;SDS011;53853;51.982;5.928;2023-05-21T13:53:24;12.07;;;10.82;;
66946;SDS011;53853;51.982;5.928;2023-05-21T13:55:54;12.43;;;10.45;;
66946;SDS011;53853;51.982;5.928;2023-05-21T13:58:24;12.05;;;10.73;;
66946;SDS011;53853;51.982;5.928;2023-05-21T14:00:59;11.15;;;10.05;;
66946;SDS011;53853;51.982;5.928;2023-05-21T14:03:29;10.85;;;9.73;;
66946;SDS011;53853;51.982;5.928;2023-05-21T14:06:01;12.20;;;10.93;;
66946;SDS011;53853;51.982;5.928;2023-05-21T14:08:33;13.95;;;10.80;;
66946;SDS011;53853;51.982;5.928;2023-05-21T14:11:03;10.45;;;9.38;;
66946;SDS011;53853;51.982;5.928;2023-05-21T14:13:32;12.25;;;11.07;;
66946;SDS011;53853;51.982;5.928;2023-05-21T14:16:02;15.80;;;12.05;;
66946;SDS011;53853;51.982;5.928;2023-05-21T14:18:33;11.73;;;10.27;;
66946;SDS011;53853;51.982;5.928;2023-05-21T14:21:05;13.13;;;11.13;;
66946;SDS011;53853;51.982;5.928;2023-05-21T14:23:35;13.85;;;11.57;;
66946;SDS011;53853;51.982;5.928;2023-05-21T14:26:05;11.15;;;8.43;;
66946;SDS011;53853;51.982;5.928;2023-05-21T14:28:35;17.05;;;11.23;;
66946;SDS011;53853;51.982;5.928;2023-05-21T14:31:05;11.77;;;10.57;;
66946;SDS011;53853;51.982;5.928;2023-05-21T14:33:35;14.70;;;10.85;;
66946;SDS011;53853;51.982;5.928;2023-05-21T14:36:09;14.15;;;10.55;;
66946;SDS011;53853;51.982;5.928;2023-05-21T14:38:38;11.40;;;9.10;;
66946;SDS011;53853;51.982;5.928;2023-05-21T14:41:08;10.38;;;9.25;;
66946;SDS011;53853;51.982;5.928;2023-05-21T14:43:38;9.88;;;8.90;;
66946;SDS011;53853;51.982;5.928;2023-05-21T14:46:08;10.50;;;9.40;;
66946;SDS011;53853;51.982;5.928;2023-05-21T14:48:38;14.13;;;11.25;;
66946;SDS011;53853;51.982;5.928;2023-05-21T14:51:10;9.95;;;8.98;;
66946;SDS011;53853;51.982;5.928;2023-05-21T14:53:40;11.60;;;9.82;;
66946;SDS011;53853;51.982;5.928;2023-05-21T14:56:10;11.27;;;9.90;;
66946;SDS011;53853;51.982;5.928;2023-05-21T14:58:40;10.80;;;9.70;;
66946;SDS011;53853;51.982;5.928;2023-05-21T15:01:10;12.02;;;10.57;;
66946;SDS011;53853;51.982;5.928;2023-05-21T15:03:40;12.20;;;10.90;;
66946;SDS011;53853;51.982;5.928;2023-05-21T15:06:12;10.70;;;9.60;;
66946;SDS011;53853;51.982;5.928;2023-05-21T15:08:42;9.65;;;8.60;;
66946;SDS011;53853;51.982;5.928;2023-05-21T15:11:12;11.10;;;10.00;;
66946;SDS011;53853;51.982;5.928;2023-05-21T15:13:42;11.48;;;10.27;;
66946;SDS011;53853;51.982;5.928;2023-05-21T15:16:12;12.45;;;10.60;;
66946;SDS011;53853;51.982;5.928;2023-05-21T15:18:41;12.00;;;10.80;;
66946;SDS011;53853;51.982;5.928;2023-05-21T15:21:14;12.23;;;10.52;;
66946;SDS011;53853;51.982;5.928;2023-05-21T15:23:44;9.85;;;8.85;;
66946;SDS011;53853;51.982;5.928;2023-05-21T15:26:13;10.30;;;9.23;;
66946;SDS011;53853;51.982;5.928;2023-05-21T15:28:43;9.82;;;8.82;;